sensor_id;sensor_type;location;lat;lon;timestamp;pressure;altitude;pressure_sealevel;temperature;humidity
26443;BME280;5563;52.296;6.806;2023-02-19T00:02:05;101543.28;;;8.98;93.33
26443;BME280;5563;52.296;6.806;2023-02-19T00:04:53;101556.53;;;8.99;93.57
26443;BME280;5563;52.296;6.806;2023-02-19T00:07:26;101556.59;;;8.98;93.50
26443;BME280;5563;52.296;6.806;2023-02-19T00:10:16;101529.53;;;8.91;93.52
26443;BME280;5563;52.296;6.806;2023-02-19T00:12:57;101543.59;;;8.93;93.48
26443;BME280;5563;52.296;6.806;2023-02-19T00:15:35;101537.72;;;8.88;93.75
26443;BME280;5563;52.296;6.806;2023-02-19T00:18:08;101550.59;;;8.94;93.91
26443;BME280;5563;52.296;6.806;2023-02-19T00:20:38;101541.25;;;8.89;93.69
26443;BME280;5563;52.296;6.806;2023-02-19T00:23:17;101549.88;;;8.92;93.72
26443;BME280;5563;52.296;6.806;2023-02-19T00:25:44;101534.19;;;8.88;93.57
26443;BME280;5563;52.296;6.806;2023-02-19T00:28:18;101544.72;;;8.89;93.57
26443;BME280;5563;52.296;6.806;2023-02-19T00:30:46;101566.19;;;9.00;93.69
26443;BME280;5563;52.296;6.806;2023-02-19T00:33:23;101565.63;;;8.95;93.68
26443;BME280;5563;52.296;6.806;2023-02-19T00:36:01;101564.56;;;8.98;93.83
26443;BME280;5563;52.296;6.806;2023-02-19T00:38:29;101537.16;;;8.83;93.37
26443;BME280;5563;52.296;6.806;2023-02-19T00:41:16;101561.06;;;8.97;93.70
26443;BME280;5563;52.296;6.806;2023-02-19T00:43:59;101545.19;;;8.82;93.71
26443;BME280;5563;52.296;6.806;2023-02-19T00:46:28;101543.31;;;8.84;93.54
26443;BME280;5563;52.296;6.806;2023-02-19T00:49:04;101533.44;;;8.86;93.52
26443;BME280;5563;52.296;6.806;2023-02-19T00:51:34;101543.03;;;8.88;93.79
26443;BME280;5563;52.296;6.806;2023-02-19T00:54:09;101559.34;;;8.96;93.67
26443;BME280;5563;52.296;6.806;2023-02-19T00:56:37;101551.88;;;8.89;93.64
26443;BME280;5563;52.296;6.806;2023-02-19T00:59:11;101560.00;;;9.00;93.78
26443;BME280;5563;52.296;6.806;2023-02-19T01:01:45;101560.97;;;8.99;93.73
26443;BME280;5563;52.296;6.806;2023-02-19T01:04:12;101545.97;;;8.84;93.53
26443;BME280;5563;52.296;6.806;2023-02-19T01:06:49;101566.19;;;9.00;93.92
26443;BME280;5563;52.296;6.806;2023-02-19T01:09:23;101554.22;;;8.93;93.70
26443;BME280;5563;52.296;6.806;2023-02-19T01:11:57;101537.88;;;8.85;93.71
26443;BME280;5563;52.296;6.806;2023-02-19T01:14:26;101537.81;;;8.87;93.76
26443;BME280;5563;52.296;6.806;2023-02-19T01:17:00;101537.81;;;8.87;93.74
26443;BME280;5563;52.296;6.806;2023-02-19T01:19:33;101544.56;;;8.92;93.58
26443;BME280;5563;52.296;6.806;2023-02-19T01:22:12;101539.50;;;8.88;93.46
26443;BME280;5563;52.296;6.806;2023-02-19T01:24:46;101555.66;;;8.99;93.36
26443;BME280;5563;52.296;6.806;2023-02-19T01:27:20;101550.53;;;8.96;93.65
26443;BME280;5563;52.296;6.806;2023-02-19T01:29:47;101551.56;;;8.93;93.45
26443;BME280;5563;52.296;6.806;2023-02-19T01:32:21;101565.06;;;9.04;93.43
26443;BME280;5563;52.296;6.806;2023-02-19T01:34:52;101542.34;;;8.99;93.39
26443;BME280;5563;52.296;6.806;2023-02-19T01:37:26;101551.38;;;8.96;93.44
26443;BME280;5563;52.296;6.806;2023-02-19T01:39:54;101558.97;;;9.02;93.13
26443;BME280;5563;52.296;6.806;2023-02-19T01:42:24;101540.16;;;8.91;93.31
26443;BME280;5563;52.296;6.806;2023-02-19T01:48:09;101564.09;;;9.05;93.21
26443;BME280;5563;52.296;6.806;2023-02-19T01:50:57;101559.91;;;9.01;93.23
26443;BME280;5563;52.296;6.806;2023-02-19T01:53:33;101542.06;;;8.89;93.21
26443;BME280;5563;52.296;6.806;2023-02-19T01:56:12;101553.19;;;8.96;93.21
26443;BME280;5563;52.296;6.806;2023-02-19T01:58:46;101552.59;;;8.91;93.16
26443;BME280;5563;52.296;6.806;2023-02-19T02:01:23;101543.03;;;8.88;92.99
26443;BME280;5563;52.296;6.806;2023-02-19T02:07:43;101569.22;;;8.94;93.40
26443;BME280;5563;52.296;6.806;2023-02-19T02:10:51;101561.81;;;8.85;93.50
26443;BME280;5563;52.296;6.806;2023-02-19T02:13:36;101570.66;;;8.86;93.36
26443;BME280;5563;52.296;6.806;2023-02-19T02:22:37;101575.81;;;8.89;93.75
26443;BME280;5563;52.296;6.806;2023-02-19T02:25:15;101587.47;;;8.86;93.46
26443;BME280;5563;52.296;6.806;2023-02-19T02:30:58;101570.00;;;8.82;93.49
26443;BME280;5563;52.296;6.806;2023-02-19T02:33:38;101583.50;;;8.79;93.53
26443;BME280;5563;52.296;6.806;2023-02-19T02:36:22;101553.47;;;8.63;93.87
26443;BME280;5563;52.296;6.806;2023-02-19T02:38:54;101566.56;;;8.66;93.52
26443;BME280;5563;52.296;6.806;2023-02-19T02:41:32;101571.06;;;8.65;93.61
26443;BME280;5563;52.296;6.806;2023-02-19T02:44:00;101556.44;;;8.58;93.63
26443;BME280;5563;52.296;6.806;2023-02-19T02:46:35;101576.06;;;8.70;93.72
26443;BME280;5563;52.296;6.806;2023-02-19T02:49:16;101562.56;;;8.59;93.63
26443;BME280;5563;52.296;6.806;2023-02-19T02:51:52;101562.00;;;8.54;93.65
26443;BME280;5563;52.296;6.806;2023-02-19T02:54:34;101566.34;;;8.55;93.77
26443;BME280;5563;52.296;6.806;2023-02-19T02:57:19;101555.06;;;8.51;93.83
26443;BME280;5563;52.296;6.806;2023-02-19T02:59:55;101561.25;;;8.52;93.73
26443;BME280;5563;52.296;6.806;2023-02-19T03:02:35;101576.31;;;8.51;93.82
26443;BME280;5563;52.296;6.806;2023-02-19T03:05:20;101582.41;;;8.53;93.82
26443;BME280;5563;52.296;6.806;2023-02-19T03:08:40;101566.09;;;8.45;93.48
26443;BME280;5563;52.296;6.806;2023-02-19T03:11:16;101575.66;;;8.48;93.47
26443;BME280;5563;52.296;6.806;2023-02-19T03:14:19;101588.00;;;8.49;93.53
26443;BME280;5563;52.296;6.806;2023-02-19T03:17:29;101602.84;;;8.53;93.49
26443;BME280;5563;52.296;6.806;2023-02-19T03:20:26;101584.78;;;8.44;93.36
26443;BME280;5563;52.296;6.806;2023-02-19T03:23:00;101598.66;;;8.49;93.46
26443;BME280;5563;52.296;6.806;2023-02-19T03:25:30;101616.69;;;8.58;93.49
26443;BME280;5563;52.296;6.806;2023-02-19T03:28:29;101623.81;;;8.57;93.27
26443;BME280;5563;52.296;6.806;2023-02-19T03:31:19;101598.16;;;8.42;93.34
26443;BME280;5563;52.296;6.806;2023-02-19T03:33:57;101598.22;;;8.41;93.24
26443;BME280;5563;52.296;6.806;2023-02-19T03:36:39;101602.72;;;8.40;93.22
26443;BME280;5563;52.296;6.806;2023-02-19T03:39:22;101608.84;;;8.41;93.31
26443;BME280;5563;52.296;6.806;2023-02-19T03:42:05;101611.63;;;8.39;93.18
26443;BME280;5563;52.296;6.806;2023-02-19T03:52:40;101640.28;;;8.48;93.53
26443;BME280;5563;52.296;6.806;2023-02-19T03:55:17;101630.41;;;8.36;93.39
26443;BME280;5563;52.296;6.806;2023-02-19T04:01:15;101620.13;;;8.30;93.25
26443;BME280;5563;52.296;6.806;2023-02-19T04:07:06;101644.91;;;8.31;93.31
26443;BME280;5563;52.296;6.806;2023-02-19T04:09:52;101667.25;;;8.42;93.13
26443;BME280;5563;52.296;6.806;2023-02-19T04:12:20;101639.94;;;8.25;93.10
26443;BME280;5563;52.296;6.806;2023-02-19T04:15:07;101641.75;;;8.24;93.02
26443;BME280;5563;52.296;6.806;2023-02-19T04:17:44;101649.72;;;8.24;93.16
26443;BME280;5563;52.296;6.806;2023-02-19T04:20:23;101680.69;;;8.39;92.98
26443;BME280;5563;52.296;6.806;2023-02-19T04:22:53;101677.66;;;8.31;93.04
26443;BME280;5563;52.296;6.806;2023-02-19T04:25:31;101680.41;;;8.30;92.99
26443;BME280;5563;52.296;6.806;2023-02-19T04:28:07;101680.31;;;8.31;92.83
26443;BME280;5563;52.296;6.806;2023-02-19T04:30:41;101677.13;;;8.25;92.91
26443;BME280;5563;52.296;6.806;2023-02-19T04:33:15;101697.69;;;8.37;92.64
26443;BME280;5563;52.296;6.806;2023-02-19T04:35:42;101681.66;;;8.23;92.69
26443;BME280;5563;52.296;6.806;2023-02-19T04:38:19;101702.34;;;8.33;92.84
26443;BME280;5563;52.296;6.806;2023-02-19T04:40:46;101702.84;;;8.24;92.87
26443;BME280;5563;52.296;6.806;2023-02-19T04:43:20;101705.91;;;8.32;92.84
26443;BME280;5563;52.296;6.806;2023-02-19T04:45:47;101684.75;;;8.15;92.78
26443;BME280;5563;52.296;6.806;2023-02-19T04:48:22;101705.72;;;8.20;92.83
26443;BME280;5563;52.296;6.806;2023-02-19T04:50:49;101692.91;;;8.12;92.93
26443;BME280;5563;52.296;6.806;2023-02-19T04:53:29;101721.38;;;8.26;93.15
26443;BME280;5563;52.296;6.806;2023-02-19T04:56:09;101705.22;;;8.13;93.26
26443;BME280;5563;52.296;6.806;2023-02-19T04:58:44;101709.53;;;8.16;93.00
26443;BME280;5563;52.296;6.806;2023-02-19T05:01:18;101703.97;;;8.05;93.35
26443;BME280;5563;52.296;6.806;2023-02-19T05:03:52;101737.50;;;8.21;93.19
26443;BME280;5563;52.296;6.806;2023-02-19T05:06:19;101713.63;;;8.06;93.38
26443;BME280;5563;52.296;6.806;2023-02-19T05:08:53;101729.31;;;8.10;93.50
26443;BME280;5563;52.296;6.806;2023-02-19T05:11:33;101732.31;;;8.04;93.25
26443;BME280;5563;52.296;6.806;2023-02-19T05:14:00;101735.81;;;8.05;93.30
26443;BME280;5563;52.296;6.806;2023-02-19T05:20:18;101767.88;;;8.17;93.66
26443;BME280;5563;52.296;6.806;2023-02-19T05:22:45;101751.00;;;8.03;93.61
26443;BME280;5563;52.296;6.806;2023-02-19T05:25:16;101737.03;;;7.99;93.71
26443;BME280;5563;52.296;6.806;2023-02-19T05:27:52;101741.47;;;7.99;93.40
26443;BME280;5563;52.296;6.806;2023-02-19T05:30:49;101754.50;;;8.03;93.60
26443;BME280;5563;52.296;6.806;2023-02-19T05:33:24;101777.03;;;8.12;93.65
26443;BME280;5563;52.296;6.806;2023-02-19T05:35:54;101781.56;;;8.10;93.86
26443;BME280;5563;52.296;6.806;2023-02-19T05:38:27;101774.81;;;8.04;93.80
26443;BME280;5563;52.296;6.806;2023-02-19T05:41:14;101775.06;;;8.00;93.63
26443;BME280;5563;52.296;6.806;2023-02-19T05:43:48;101762.97;;;7.94;93.68
26443;BME280;5563;52.296;6.806;2023-02-19T05:46:21;101760.47;;;7.91;93.36
26443;BME280;5563;52.296;6.806;2023-02-19T05:48:56;101789.81;;;8.05;93.57
26443;BME280;5563;52.296;6.806;2023-02-19T05:51:27;101785.44;;;8.04;93.62
26443;BME280;5563;52.296;6.806;2023-02-19T05:54:01;101756.31;;;7.87;93.28
26443;BME280;5563;52.296;6.806;2023-02-19T05:56:40;101788.06;;;8.04;93.12
26443;BME280;5563;52.296;6.806;2023-02-19T05:59:20;101761.59;;;7.87;92.93
26443;BME280;5563;52.296;6.806;2023-02-19T06:01:49;101777.28;;;7.92;93.31
26443;BME280;5563;52.296;6.806;2023-02-19T06:04:23;101795.19;;;8.04;92.90
26443;BME280;5563;52.296;6.806;2023-02-19T06:06:50;101780.03;;;7.90;93.12
26443;BME280;5563;52.296;6.806;2023-02-19T06:09:31;101775.72;;;7.88;93.08
26443;BME280;5563;52.296;6.806;2023-02-19T06:11:58;101805.97;;;8.01;93.14
26443;BME280;5563;52.296;6.806;2023-02-19T06:14:31;101795.63;;;7.96;92.97
26443;BME280;5563;52.296;6.806;2023-02-19T06:17:05;101815.81;;;7.99;93.12
26443;BME280;5563;52.296;6.806;2023-02-19T07:58:30;102000.28;;;6.49;93.34
26443;BME280;5563;52.296;6.806;2023-02-19T08:01:21;102004.06;;;6.43;93.51
26443;BME280;5563;52.296;6.806;2023-02-19T08:04:19;102013.94;;;6.40;93.33
26443;BME280;5563;52.296;6.806;2023-02-19T08:06:46;102021.75;;;6.43;93.50
26443;BME280;5563;52.296;6.806;2023-02-19T08:09:22;102041.97;;;6.45;93.62
26443;BME280;5563;52.296;6.806;2023-02-19T08:11:54;102033.69;;;6.33;93.61
26443;BME280;5563;52.296;6.806;2023-02-19T08:14:50;102039.31;;;6.25;93.32
26443;BME280;5563;52.296;6.806;2023-02-19T08:29:07;102069.38;;;6.04;93.65
26443;BME280;5563;52.296;6.806;2023-02-19T08:47:16;102113.50;;;5.82;94.01
26443;BME280;5563;52.296;6.806;2023-02-19T08:51:05;102093.81;;;5.68;94.04
26443;BME280;5563;52.296;6.806;2023-02-19T09:54:51;102252.34;;;6.18;91.14
26443;BME280;5563;52.296;6.806;2023-02-19T10:02:12;102250.53;;;6.40;90.73
26443;BME280;5563;52.296;6.806;2023-02-19T10:16:50;102286.06;;;6.56;88.60
26443;BME280;5563;52.296;6.806;2023-02-19T10:20:27;102266.94;;;6.50;89.41
26443;BME280;5563;52.296;6.806;2023-02-19T10:23:58;102280.91;;;6.53;89.05
26443;BME280;5563;52.296;6.806;2023-02-19T10:27:28;102276.59;;;6.51;89.21
26443;BME280;5563;52.296;6.806;2023-02-19T10:31:06;102293.78;;;6.63;89.54
26443;BME280;5563;52.296;6.806;2023-02-19T10:35:05;102299.03;;;6.64;89.19
26443;BME280;5563;52.296;6.806;2023-02-19T10:38:30;102328.72;;;6.72;87.25
26443;BME280;5563;52.296;6.806;2023-02-19T10:41:38;102296.81;;;6.53;87.94
26443;BME280;5563;52.296;6.806;2023-02-19T11:42:56;102342.97;;;8.27;83.82
26443;BME280;5563;52.296;6.806;2023-02-19T12:50:02;102361.13;;;8.91;79.55
26443;BME280;5563;52.296;6.806;2023-02-19T12:57:23;102356.41;;;8.79;78.71
26443;BME280;5563;52.296;6.806;2023-02-19T13:00:59;102363.38;;;8.81;79.11
26443;BME280;5563;52.296;6.806;2023-02-19T13:19:12;102390.44;;;8.72;78.64
26443;BME280;5563;52.296;6.806;2023-02-19T13:37:27;102422.91;;;8.41;78.35
26443;BME280;5563;52.296;6.806;2023-02-19T13:41:01;102415.28;;;8.34;78.19
26443;BME280;5563;52.296;6.806;2023-02-19T13:44:51;102407.63;;;8.28;77.69
26443;BME280;5563;52.296;6.806;2023-02-19T13:51:50;102411.88;;;8.32;78.37
26443;BME280;5563;52.296;6.806;2023-02-19T14:14:45;102420.53;;;8.73;76.32
26443;BME280;5563;52.296;6.806;2023-02-19T14:17:41;102399.72;;;8.63;76.31
26443;BME280;5563;52.296;6.806;2023-02-19T14:20:40;102421.19;;;8.78;75.79
26443;BME280;5563;52.296;6.806;2023-02-19T14:23:19;102399.78;;;8.62;76.39
26443;BME280;5563;52.296;6.806;2023-02-19T14:25:56;102404.94;;;8.65;76.15
26443;BME280;5563;52.296;6.806;2023-02-19T14:28:39;102424.03;;;8.73;76.38
26443;BME280;5563;52.296;6.806;2023-02-19T14:31:37;102393.69;;;8.60;77.02
26443;BME280;5563;52.296;6.806;2023-02-19T14:34:17;102413.31;;;8.74;76.81
26443;BME280;5563;52.296;6.806;2023-02-19T14:37:00;102377.13;;;8.53;76.13
26443;BME280;5563;52.296;6.806;2023-02-19T14:39:36;102381.53;;;8.54;76.51
26443;BME280;5563;52.296;6.806;2023-02-19T14:42:22;102401.22;;;8.69;76.76
26443;BME280;5563;52.296;6.806;2023-02-19T14:44:54;102377.56;;;8.63;77.01
26443;BME280;5563;52.296;6.806;2023-02-19T14:47:30;102347.69;;;8.58;76.43
26443;BME280;5563;52.296;6.806;2023-02-19T14:52:46;102350.47;;;8.73;75.85
26443;BME280;5563;52.296;6.806;2023-02-19T14:55:22;102339.19;;;8.68;75.53
26443;BME280;5563;52.296;6.806;2023-02-19T14:58:00;102348.31;;;8.63;75.17
26443;BME280;5563;52.296;6.806;2023-02-19T15:00:35;102361.63;;;8.63;75.03
26443;BME280;5563;52.296;6.806;2023-02-19T15:03:34;102343.19;;;8.41;75.08
26443;BME280;5563;52.296;6.806;2023-02-19T15:06:12;102353.81;;;8.41;74.75
26443;BME280;5563;52.296;6.806;2023-02-19T15:08:55;102355.03;;;8.34;75.83
26443;BME280;5563;52.296;6.806;2023-02-19T15:11:26;102350.16;;;8.25;75.27
26443;BME280;5563;52.296;6.806;2023-02-19T15:14:03;102352.06;;;8.22;75.62
26443;BME280;5563;52.296;6.806;2023-02-19T15:16:33;102347.09;;;8.14;76.29
26443;BME280;5563;52.296;6.806;2023-02-19T15:19:08;102342.53;;;7.99;75.29
26443;BME280;5563;52.296;6.806;2023-02-19T15:21:45;102378.22;;;8.12;75.96
26443;BME280;5563;52.296;6.806;2023-02-19T15:24:15;102348.41;;;7.87;75.77
26443;BME280;5563;52.296;6.806;2023-02-19T15:26:52;102360.09;;;7.83;75.92
26443;BME280;5563;52.296;6.806;2023-02-19T15:29:25;102366.38;;;7.81;76.34
26443;BME280;5563;52.296;6.806;2023-02-19T15:32:00;102367.88;;;7.68;76.31
26443;BME280;5563;52.296;6.806;2023-02-19T15:34:30;102365.56;;;7.60;76.21
26443;BME280;5563;52.296;6.806;2023-02-19T15:37:07;102388.19;;;7.68;76.80
26443;BME280;5563;52.296;6.806;2023-02-19T15:39:43;102372.22;;;7.50;76.76
26443;BME280;5563;52.296;6.806;2023-02-19T15:42:22;102392.31;;;7.55;76.98
26443;BME280;5563;52.296;6.806;2023-02-19T15:45:04;102403.47;;;7.63;76.68
26443;BME280;5563;52.296;6.806;2023-02-19T15:47:48;102384.84;;;7.45;77.06
26443;BME280;5563;52.296;6.806;2023-02-19T15:50:27;102414.41;;;7.56;76.80
26443;BME280;5563;52.296;6.806;2023-02-19T15:53:15;102388.63;;;7.39;77.12
26443;BME280;5563;52.296;6.806;2023-02-19T15:58:41;102398.34;;;7.39;77.43
26443;BME280;5563;52.296;6.806;2023-02-19T16:01:25;102381.13;;;7.29;77.81
26443;BME280;5563;52.296;6.806;2023-02-19T16:04:00;102399.41;;;7.35;77.75
26443;BME280;5563;52.296;6.806;2023-02-19T16:06:28;102375.41;;;7.18;77.10
26443;BME280;5563;52.296;6.806;2023-02-19T16:09:04;102370.09;;;7.18;77.73
26443;BME280;5563;52.296;6.806;2023-02-19T16:11:37;102378.72;;;7.23;77.54
26443;BME280;5563;52.296;6.806;2023-02-19T16:14:22;102402.13;;;7.33;77.48
26443;BME280;5563;52.296;6.806;2023-02-19T16:16:53;102376.69;;;7.08;77.20
26443;BME280;5563;52.296;6.806;2023-02-19T16:19:41;102392.56;;;7.09;77.77
26443;BME280;5563;52.296;6.806;2023-02-19T16:22:19;102421.41;;;7.17;77.68
26443;BME280;5563;52.296;6.806;2023-02-19T16:25:04;102425.28;;;7.08;78.32
26443;BME280;5563;52.296;6.806;2023-02-19T16:27:37;102451.28;;;7.22;78.22
26443;BME280;5563;52.296;6.806;2023-02-19T16:32:42;102418.53;;;7.01;78.90
26443;BME280;5563;52.296;6.806;2023-02-19T16:35:36;102419.19;;;7.06;78.43
26443;BME280;5563;52.296;6.806;2023-02-19T16:38:13;102411.56;;;6.99;78.44
26443;BME280;5563;52.296;6.806;2023-02-19T16:43:29;102446.34;;;7.13;78.24
26443;BME280;5563;52.296;6.806;2023-02-19T16:46:07;102444.59;;;7.12;78.31
26443;BME280;5563;52.296;6.806;2023-02-19T16:48:35;102417.34;;;6.87;78.52
26443;BME280;5563;52.296;6.806;2023-02-19T16:51:16;102427.16;;;6.85;78.81
26443;BME280;5563;52.296;6.806;2023-02-19T16:53:49;102429.03;;;6.83;78.95
26443;BME280;5563;52.296;6.806;2023-02-19T16:56:23;102450.72;;;6.92;79.13
26443;BME280;5563;52.296;6.806;2023-02-19T16:58:57;102461.25;;;6.94;79.30
26443;BME280;5563;52.296;6.806;2023-02-19T17:01:32;102472.59;;;6.97;79.27
26443;BME280;5563;52.296;6.806;2023-02-19T17:04:09;102435.59;;;6.73;79.44
26443;BME280;5563;52.296;6.806;2023-02-19T17:06:43;102460.03;;;6.81;79.75
26443;BME280;5563;52.296;6.806;2023-02-19T17:09:17;102454.78;;;6.79;80.10
26443;BME280;5563;52.296;6.806;2023-02-19T17:11:44;102447.75;;;6.78;80.15
26443;BME280;5563;52.296;6.806;2023-02-19T17:14:18;102437.56;;;6.68;80.01
26443;BME280;5563;52.296;6.806;2023-02-19T17:16:45;102480.97;;;6.87;80.43
26443;BME280;5563;52.296;6.806;2023-02-19T17:19:27;102449.84;;;6.70;80.69
26443;BME280;5563;52.296;6.806;2023-02-19T17:21:54;102462.16;;;6.71;80.79
26443;BME280;5563;52.296;6.806;2023-02-19T17:24:31;102442.19;;;6.63;80.71
26443;BME280;5563;52.296;6.806;2023-02-19T17:26:58;102454.50;;;6.64;80.82
26443;BME280;5563;52.296;6.806;2023-02-19T17:29:31;102463.19;;;6.67;81.11
26443;BME280;5563;52.296;6.806;2023-02-19T17:32:05;102451.25;;;6.57;81.04
26443;BME280;5563;52.296;6.806;2023-02-19T17:34:36;102459.94;;;6.61;81.09
26443;BME280;5563;52.296;6.806;2023-02-19T17:37:09;102457.50;;;6.54;81.36
26443;BME280;5563;52.296;6.806;2023-02-19T17:39:36;102473.88;;;6.66;81.13
26443;BME280;5563;52.296;6.806;2023-02-19T17:42:09;102458.31;;;6.56;81.21
26443;BME280;5563;52.296;6.806;2023-02-19T17:44:37;102482.50;;;6.71;81.15
26443;BME280;5563;52.296;6.806;2023-02-19T17:47:10;102477.44;;;6.65;81.42
26443;BME280;5563;52.296;6.806;2023-02-19T17:49:40;102456.66;;;6.54;81.60
26443;BME280;5563;52.296;6.806;2023-02-19T17:52:13;102472.31;;;6.60;81.44
26443;BME280;5563;52.296;6.806;2023-02-19T17:54:43;102462.06;;;6.51;81.50
26443;BME280;5563;52.296;6.806;2023-02-19T17:57:17;102468.28;;;6.50;81.36
26443;BME280;5563;52.296;6.806;2023-02-19T17:59:45;102505.38;;;6.73;81.51
26443;BME280;5563;52.296;6.806;2023-02-19T18:02:18;102479.63;;;6.53;81.36
26443;BME280;5563;52.296;6.806;2023-02-19T18:04:46;102462.25;;;6.46;81.34
26443;BME280;5563;52.296;6.806;2023-02-19T18:07:19;102482.16;;;6.56;81.81
26443;BME280;5563;52.296;6.806;2023-02-19T18:09:47;102467.56;;;6.46;81.48
26443;BME280;5563;52.296;6.806;2023-02-19T18:12:20;102516.94;;;6.71;81.40
26443;BME280;5563;52.296;6.806;2023-02-19T18:14:54;102498.88;;;6.58;81.48
26443;BME280;5563;52.296;6.806;2023-02-19T18:17:28;102496.56;;;6.49;81.44
26443;BME280;5563;52.296;6.806;2023-02-19T18:19:56;102490.44;;;6.49;81.09
26443;BME280;5563;52.296;6.806;2023-02-19T18:22:29;102501.66;;;6.55;81.41
26443;BME280;5563;52.296;6.806;2023-02-19T18:24:57;102474.88;;;6.40;81.44
26443;BME280;5563;52.296;6.806;2023-02-19T18:27:31;102514.63;;;6.63;81.72
26443;BME280;5563;52.296;6.806;2023-02-19T18:30:05;102498.25;;;6.52;81.28
26443;BME280;5563;52.296;6.806;2023-02-19T18:32:36;102515.72;;;6.57;81.08
26443;BME280;5563;52.296;6.806;2023-02-19T18:35:10;102502.00;;;6.46;80.82
26443;BME280;5563;52.296;6.806;2023-02-19T18:37:37;102526.41;;;6.54;80.63
26443;BME280;5563;52.296;6.806;2023-02-19T18:40:11;102498.78;;;6.38;80.13
26443;BME280;5563;52.296;6.806;2023-02-19T18:42:38;102501.31;;;6.41;80.18
26443;BME280;5563;52.296;6.806;2023-02-19T18:45:13;102504.09;;;6.38;80.36
26443;BME280;5563;52.296;6.806;2023-02-19T18:47:40;102497.44;;;6.27;80.09
26443;BME280;5563;52.296;6.806;2023-02-19T18:50:14;102510.41;;;6.34;79.81
26443;BME280;5563;52.296;6.806;2023-02-19T18:52:48;102492.19;;;6.25;79.94
26443;BME280;5563;52.296;6.806;2023-02-19T18:55:15;102507.81;;;6.33;79.98
26443;BME280;5563;52.296;6.806;2023-02-19T18:57:49;102505.16;;;6.33;80.24
26443;BME280;5563;52.296;6.806;2023-02-19T19:00:21;102502.84;;;6.24;80.26
26443;BME280;5563;52.296;6.806;2023-02-19T19:02:58;102488.91;;;6.19;79.73
26443;BME280;5563;52.296;6.806;2023-02-19T19:05:31;102504.50;;;6.26;79.74
26443;BME280;5563;52.296;6.806;2023-02-19T19:08:05;102502.84;;;6.24;79.14
26443;BME280;5563;52.296;6.806;2023-02-19T19:10:32;102497.69;;;6.19;79.20
26443;BME280;5563;52.296;6.806;2023-02-19T19:13:06;102481.31;;;6.10;79.00
26443;BME280;5563;52.296;6.806;2023-02-19T19:15:34;102480.22;;;6.15;79.62
26443;BME280;5563;52.296;6.806;2023-02-19T19:18:07;102461.91;;;6.09;79.36
26443;BME280;5563;52.296;6.806;2023-02-19T19:20:35;102471.53;;;6.12;79.66
26443;BME280;5563;52.296;6.806;2023-02-19T19:23:08;102500.97;;;6.27;79.76
26443;BME280;5563;52.296;6.806;2023-02-19T19:25:42;102483.91;;;6.11;79.09
26443;BME280;5563;52.296;6.806;2023-02-19T19:28:15;102480.50;;;6.08;79.13
26443;BME280;5563;52.296;6.806;2023-02-19T19:30:43;102491.91;;;6.10;79.09
26443;BME280;5563;52.296;6.806;2023-02-19T19:33:16;102472.88;;;5.99;79.46
26443;BME280;5563;52.296;6.806;2023-02-19T19:35:49;102492.97;;;6.04;79.00
26443;BME280;5563;52.296;6.806;2023-02-19T19:38:17;102486.88;;;6.02;79.23
26443;BME280;5563;52.296;6.806;2023-02-19T19:40:50;102537.34;;;6.22;79.49
26443;BME280;5563;52.296;6.806;2023-02-19T19:43:17;102500.16;;;6.01;79.54
26443;BME280;5563;52.296;6.806;2023-02-19T19:45:50;102518.59;;;6.04;79.73
26443;BME280;5563;52.296;6.806;2023-02-19T19:48:17;102541.91;;;6.17;79.91
26443;BME280;5563;52.296;6.806;2023-02-19T19:50:52;102501.31;;;5.94;79.63
26443;BME280;5563;52.296;6.806;2023-02-19T19:53:19;102511.72;;;5.98;79.88
26443;BME280;5563;52.296;6.806;2023-02-19T19:55:52;102548.91;;;6.20;80.18
26443;BME280;5563;52.296;6.806;2023-02-19T19:58:19;102515.94;;;6.04;79.85
26443;BME280;5563;52.296;6.806;2023-02-19T20:01:03;102521.16;;;6.05;79.80
26443;BME280;5563;52.296;6.806;2023-02-19T20:03:32;102526.38;;;6.08;80.01
26443;BME280;5563;52.296;6.806;2023-02-19T20:06:05;102501.38;;;5.91;80.03
26443;BME280;5563;52.296;6.806;2023-02-19T20:08:33;102536.72;;;6.14;80.13
26443;BME280;5563;52.296;6.806;2023-02-19T20:11:07;102508.16;;;5.99;80.25
26443;BME280;5563;52.296;6.806;2023-02-19T20:13:40;102509.19;;;5.95;80.22
26443;BME280;5563;52.296;6.806;2023-02-19T20:16:25;102516.06;;;6.01;80.48
26443;BME280;5563;52.296;6.806;2023-02-19T20:18:59;102546.63;;;6.09;80.82
26443;BME280;5563;52.296;6.806;2023-02-19T20:21:27;102524.19;;;5.95;80.83
26443;BME280;5563;52.296;6.806;2023-02-19T20:24:01;102514.47;;;5.95;80.69
26443;BME280;5563;52.296;6.806;2023-02-19T20:26:29;102524.13;;;5.96;80.75
26443;BME280;5563;52.296;6.806;2023-02-19T20:29:03;102486.78;;;5.79;80.74
26443;BME280;5563;52.296;6.806;2023-02-19T20:31:32;102498.97;;;5.85;80.46
26443;BME280;5563;52.296;6.806;2023-02-19T20:34:06;102502.38;;;5.88;80.72
26443;BME280;5563;52.296;6.806;2023-02-19T20:36:41;102495.84;;;5.72;80.72
26443;BME280;5563;52.296;6.806;2023-02-19T20:39:18;102523.94;;;5.76;80.99
26443;BME280;5563;52.296;6.806;2023-02-19T20:41:53;102503.34;;;5.60;81.37
26443;BME280;5563;52.296;6.806;2023-02-19T20:44:27;102529.13;;;5.79;81.40
26443;BME280;5563;52.296;6.806;2023-02-19T20:47:02;102494.66;;;5.56;81.68
26443;BME280;5563;52.296;6.806;2023-02-19T20:49:47;102504.34;;;5.56;81.67
26443;BME280;5563;52.296;6.806;2023-02-19T20:52:22;102512.09;;;5.62;81.65
26443;BME280;5563;52.296;6.806;2023-02-19T20:54:59;102498.22;;;5.55;81.93
26443;BME280;5563;52.296;6.806;2023-02-19T20:57:27;102514.53;;;5.68;82.34
26443;BME280;5563;52.296;6.806;2023-02-19T20:59:54;102509.34;;;5.65;82.41
26443;BME280;5563;52.296;6.806;2023-02-19T21:02:27;102519.50;;;5.77;82.42
26443;BME280;5563;52.296;6.806;2023-02-19T21:04:55;102478.88;;;5.53;83.06
26443;BME280;5563;52.296;6.806;2023-02-19T21:07:30;102492.81;;;5.58;83.51
26443;BME280;5563;52.296;6.806;2023-02-19T21:09:57;102480.50;;;5.57;83.94
26443;BME280;5563;52.296;6.806;2023-02-19T21:12:30;102486.13;;;5.48;84.28
26443;BME280;5563;52.296;6.806;2023-02-19T21:14:59;102516.47;;;5.63;84.71
26443;BME280;5563;52.296;6.806;2023-02-19T21:17:32;102472.31;;;5.38;85.02
26443;BME280;5563;52.296;6.806;2023-02-19T21:20:00;102508.81;;;5.55;85.23